sensor_id;sensor_type;location;lat;lon;timestamp;P1;durP1;ratioP1;P2;durP2;ratioP2
9950;SDS011;24074;49.254;6.702;2022-12-15T00:00:44;26.50;;;18.30;;
9950;SDS011;24074;49.254;6.702;2022-12-15T00:03:28;28.60;;;18.73;;
9950;SDS011;24074;49.254;6.702;2022-12-15T00:06:12;26.13;;;17.50;;
9950;SDS011;24074;49.254;6.702;2022-12-15T00:08:56;25.87;;;17.93;;
9950;SDS011;24074;49.254;6.702;2022-12-15T00:11:40;25.07;;;18.17;;
9950;SDS011;24074;49.254;6.702;2022-12-15T00:14:24;26.53;;;18.23;;
9950;SDS011;24074;49.254;6.702;2022-12-15T00:17:08;26.17;;;17.67;;
9950;SDS011;24074;49.254;6.702;2022-12-15T00:19:53;26.27;;;17.93;;
9950;SDS011;24074;49.254;6.702;2022-12-15T00:22:37;27.00;;;18.43;;
9950;SDS011;24074;49.254;6.702;2022-12-15T00:25:21;23.77;;;17.30;;
9950;SDS011;24074;49.254;6.702;2022-12-15T00:28:05;26.93;;;18.00;;
9950;SDS011;24074;49.254;6.702;2022-12-15T00:30:50;28.00;;;18.37;;
9950;SDS011;24074;49.254;6.702;2022-12-15T00:33:34;24.97;;;16.90;;
9950;SDS011;24074;49.254;6.702;2022-12-15T00:36:18;27.20;;;18.70;;
9950;SDS011;24074;49.254;6.702;2022-12-15T00:39:02;25.87;;;17.20;;
9950;SDS011;24074;49.254;6.702;2022-12-15T00:41:28;24.80;;;17.03;;
9950;SDS011;24074;49.254;6.702;2022-12-15T00:43:53;25.53;;;17.37;;
9950;SDS011;24074;49.254;6.702;2022-12-15T00:46:19;25.97;;;17.73;;
9950;SDS011;24074;49.254;6.702;2022-12-15T00:49:03;24.80;;;17.13;;
9950;SDS011;24074;49.254;6.702;2022-12-15T00:51:48;24.87;;;17.33;;
9950;SDS011;24074;49.254;6.702;2022-12-15T00:54:32;27.70;;;17.60;;
9950;SDS011;24074;49.254;6.702;2022-12-15T00:57:16;25.77;;;18.97;;
9950;SDS011;24074;49.254;6.702;2022-12-15T01:00:00;24.63;;;17.20;;
9950;SDS011;24074;49.254;6.702;2022-12-15T01:02:44;25.27;;;17.90;;
9950;SDS011;24074;49.254;6.702;2022-12-15T01:05:28;25.67;;;17.77;;
9950;SDS011;24074;49.254;6.702;2022-12-15T01:08:12;26.87;;;17.87;;
9950;SDS011;24074;49.254;6.702;2022-12-15T01:10:59;24.70;;;17.60;;
9950;SDS011;24074;49.254;6.702;2022-12-15T01:13:43;23.97;;;16.90;;
9950;SDS011;24074;49.254;6.702;2022-12-15T01:16:27;25.60;;;17.40;;
9950;SDS011;24074;49.254;6.702;2022-12-15T01:19:11;24.80;;;17.63;;
9950;SDS011;24074;49.254;6.702;2022-12-15T01:21:55;24.77;;;16.90;;
9950;SDS011;24074;49.254;6.702;2022-12-15T01:24:20;24.33;;;17.17;;
9950;SDS011;24074;49.254;6.702;2022-12-15T01:26:46;25.87;;;16.63;;
9950;SDS011;24074;49.254;6.702;2022-12-15T01:29:12;22.67;;;16.13;;
9950;SDS011;24074;49.254;6.702;2022-12-15T01:31:37;25.17;;;16.67;;
9950;SDS011;24074;49.254;6.702;2022-12-15T01:34:03;24.67;;;16.50;;
9950;SDS011;24074;49.254;6.702;2022-12-15T01:36:29;25.20;;;18.07;;
9950;SDS011;24074;49.254;6.702;2022-12-15T01:38:54;23.60;;;16.70;;
9950;SDS011;24074;49.254;6.702;2022-12-15T01:41:20;23.67;;;16.80;;
9950;SDS011;24074;49.254;6.702;2022-12-15T01:43:46;23.40;;;17.40;;
9950;SDS011;24074;49.254;6.702;2022-12-15T01:46:15;24.03;;;16.87;;
9950;SDS011;24074;49.254;6.702;2022-12-15T01:51:36;23.97;;;16.40;;
9950;SDS011;24074;49.254;6.702;2022-12-15T01:54:07;25.27;;;16.87;;
9950;SDS011;24074;49.254;6.702;2022-12-15T01:56:38;22.10;;;16.37;;
9950;SDS011;24074;49.254;6.702;2022-12-15T01:59:11;24.10;;;16.87;;
9950;SDS011;24074;49.254;6.702;2022-12-15T02:01:40;23.57;;;17.30;;
9950;SDS011;24074;49.254;6.702;2022-12-15T02:04:06;24.70;;;16.63;;
9950;SDS011;24074;49.254;6.702;2022-12-15T02:06:32;24.07;;;16.87;;
9950;SDS011;24074;49.254;6.702;2022-12-15T02:09:00;24.90;;;16.63;;
9950;SDS011;24074;49.254;6.702;2022-12-15T02:35:58;22.17;;;16.10;;
9950;SDS011;24074;49.254;6.702;2022-12-15T02:38:29;21.43;;;15.17;;
9950;SDS011;24074;49.254;6.702;2022-12-15T02:40:57;19.97;;;15.30;;
9950;SDS011;24074;49.254;6.702;2022-12-15T02:43:23;22.53;;;15.43;;
9950;SDS011;24074;49.254;6.702;2022-12-15T02:46:03;22.23;;;15.40;;
9950;SDS011;24074;49.254;6.702;2022-12-15T02:52:03;23.40;;;14.90;;
9950;SDS011;24074;49.254;6.702;2022-12-15T02:54:39;23.23;;;15.87;;
9950;SDS011;24074;49.254;6.702;2022-12-15T02:59:55;21.33;;;15.43;;
9950;SDS011;24074;49.254;6.702;2022-12-15T03:02:26;23.77;;;16.27;;
9950;SDS011;24074;49.254;6.702;2022-12-15T03:04:55;21.50;;;15.73;;
9950;SDS011;24074;49.254;6.702;2022-12-15T03:07:22;23.63;;;15.93;;
9950;SDS011;24074;49.254;6.702;2022-12-15T03:09:48;22.87;;;16.13;;
9950;SDS011;24074;49.254;6.702;2022-12-15T03:12:14;25.53;;;16.63;;
9950;SDS011;24074;49.254;6.702;2022-12-15T03:14:40;26.77;;;17.03;;
9950;SDS011;24074;49.254;6.702;2022-12-15T03:17:05;28.13;;;17.77;;
9950;SDS011;24074;49.254;6.702;2022-12-15T03:19:31;27.67;;;17.73;;
9950;SDS011;24074;49.254;6.702;2022-12-15T03:21:57;25.33;;;16.37;;
9950;SDS011;24074;49.254;6.702;2022-12-15T03:24:23;24.63;;;16.70;;
9950;SDS011;24074;49.254;6.702;2022-12-15T03:26:48;24.93;;;16.37;;
9950;SDS011;24074;49.254;6.702;2022-12-15T03:29:15;25.97;;;17.57;;
9950;SDS011;24074;49.254;6.702;2022-12-15T03:31:41;25.77;;;17.47;;
9950;SDS011;24074;49.254;6.702;2022-12-15T03:34:08;25.97;;;17.57;;
9950;SDS011;24074;49.254;6.702;2022-12-15T03:36:34;26.37;;;16.60;;
9950;SDS011;24074;49.254;6.702;2022-12-15T03:38:59;22.33;;;16.00;;
9950;SDS011;24074;49.254;6.702;2022-12-15T03:41:25;28.20;;;17.83;;
9950;SDS011;24074;49.254;6.702;2022-12-15T03:43:50;26.73;;;16.67;;
9950;SDS011;24074;49.254;6.702;2022-12-15T03:46:16;24.00;;;16.57;;
9950;SDS011;24074;49.254;6.702;2022-12-15T03:48:42;27.27;;;17.07;;
9950;SDS011;24074;49.254;6.702;2022-12-15T03:51:07;28.47;;;17.60;;
9950;SDS011;24074;49.254;6.702;2022-12-15T03:53:33;30.23;;;19.70;;
9950;SDS011;24074;49.254;6.702;2022-12-15T03:55:58;26.17;;;18.00;;
9950;SDS011;24074;49.254;6.702;2022-12-15T03:58:24;29.70;;;17.20;;
9950;SDS011;24074;49.254;6.702;2022-12-15T04:00:49;29.27;;;17.83;;
9950;SDS011;24074;49.254;6.702;2022-12-15T04:03:15;25.40;;;17.73;;
9950;SDS011;24074;49.254;6.702;2022-12-15T04:05:40;26.90;;;16.97;;
9950;SDS011;24074;49.254;6.702;2022-12-15T04:08:06;26.30;;;17.10;;
9950;SDS011;24074;49.254;6.702;2022-12-15T04:10:32;25.37;;;16.93;;
9950;SDS011;24074;49.254;6.702;2022-12-15T04:12:59;25.53;;;15.73;;
9950;SDS011;24074;49.254;6.702;2022-12-15T04:15:32;26.30;;;16.47;;
9950;SDS011;24074;49.254;6.702;2022-12-15T04:18:03;22.67;;;15.33;;
9950;SDS011;24074;49.254;6.702;2022-12-15T04:20:30;22.63;;;15.77;;
9950;SDS011;24074;49.254;6.702;2022-12-15T04:22:57;24.10;;;17.03;;
9950;SDS011;24074;49.254;6.702;2022-12-15T04:25:24;22.47;;;15.57;;
9950;SDS011;24074;49.254;6.702;2022-12-15T04:28:09;24.20;;;15.20;;
9950;SDS011;24074;49.254;6.702;2022-12-15T04:30:59;21.93;;;14.87;;
9950;SDS011;24074;49.254;6.702;2022-12-15T04:33:49;21.60;;;15.23;;
9950;SDS011;24074;49.254;6.702;2022-12-15T04:36:35;21.93;;;13.83;;
9950;SDS011;24074;49.254;6.702;2022-12-15T04:39:22;23.50;;;14.80;;
9950;SDS011;24074;49.254;6.702;2022-12-15T04:42:07;21.23;;;14.93;;
9950;SDS011;24074;49.254;6.702;2022-12-15T04:44:51;24.23;;;15.43;;
9950;SDS011;24074;49.254;6.702;2022-12-15T04:47:39;22.50;;;14.37;;
9950;SDS011;24074;49.254;6.702;2022-12-15T04:50:23;22.07;;;14.63;;
9950;SDS011;24074;49.254;6.702;2022-12-15T04:53:11;22.93;;;14.97;;
9950;SDS011;24074;49.254;6.702;2022-12-15T04:55:57;22.10;;;15.17;;
9950;SDS011;24074;49.254;6.702;2022-12-15T04:58:42;25.33;;;15.97;;
9950;SDS011;24074;49.254;6.702;2022-12-15T05:01:26;22.17;;;16.10;;
9950;SDS011;24074;49.254;6.702;2022-12-15T05:04:10;20.97;;;15.13;;
9950;SDS011;24074;49.254;6.702;2022-12-15T05:06:54;24.40;;;16.33;;
9950;SDS011;24074;49.254;6.702;2022-12-15T05:09:38;22.30;;;15.40;;
9950;SDS011;24074;49.254;6.702;2022-12-15T05:12:22;22.57;;;15.50;;
9950;SDS011;24074;49.254;6.702;2022-12-15T05:15:06;22.10;;;15.50;;
9950;SDS011;24074;49.254;6.702;2022-12-15T05:17:51;21.73;;;14.80;;
9950;SDS011;24074;49.254;6.702;2022-12-15T05:20:35;22.93;;;15.40;;
9950;SDS011;24074;49.254;6.702;2022-12-15T05:23:19;23.17;;;15.47;;
9950;SDS011;24074;49.254;6.702;2022-12-15T05:26:03;22.63;;;14.57;;
9950;SDS011;24074;49.254;6.702;2022-12-15T05:28:47;22.00;;;14.67;;
9950;SDS011;24074;49.254;6.702;2022-12-15T05:31:31;21.73;;;13.47;;
9950;SDS011;24074;49.254;6.702;2022-12-15T05:34:26;19.30;;;13.67;;
9950;SDS011;24074;49.254;6.702;2022-12-15T05:36:54;24.10;;;13.50;;
9950;SDS011;24074;49.254;6.702;2022-12-15T05:39:21;21.37;;;14.37;;
9950;SDS011;24074;49.254;6.702;2022-12-15T05:41:49;23.47;;;14.23;;
9950;SDS011;24074;49.254;6.702;2022-12-15T05:44:15;21.97;;;12.50;;
9950;SDS011;24074;49.254;6.702;2022-12-15T05:46:41;19.60;;;14.10;;
9950;SDS011;24074;49.254;6.702;2022-12-15T05:49:07;21.50;;;14.00;;
9950;SDS011;24074;49.254;6.702;2022-12-15T05:51:36;21.23;;;14.20;;
9950;SDS011;24074;49.254;6.702;2022-12-15T05:54:03;21.53;;;14.30;;
9950;SDS011;24074;49.254;6.702;2022-12-15T05:56:28;21.67;;;14.20;;
9950;SDS011;24074;49.254;6.702;2022-12-15T05:58:54;25.90;;;14.73;;
9950;SDS011;24074;49.254;6.702;2022-12-15T06:01:21;22.20;;;14.93;;
9950;SDS011;24074;49.254;6.702;2022-12-15T06:03:47;21.30;;;14.93;;
9950;SDS011;24074;49.254;6.702;2022-12-15T06:06:13;23.53;;;14.67;;
9950;SDS011;24074;49.254;6.702;2022-12-15T06:08:39;23.57;;;14.60;;
9950;SDS011;24074;49.254;6.702;2022-12-15T06:11:06;21.40;;;14.47;;
9950;SDS011;24074;49.254;6.702;2022-12-15T06:13:33;23.53;;;15.87;;
9950;SDS011;24074;49.254;6.702;2022-12-15T06:16:00;26.53;;;16.73;;
9950;SDS011;24074;49.254;6.702;2022-12-15T06:18:33;21.70;;;14.53;;
9950;SDS011;24074;49.254;6.702;2022-12-15T06:21:01;23.43;;;15.83;;
9950;SDS011;24074;49.254;6.702;2022-12-15T06:23:28;23.53;;;14.60;;
9950;SDS011;24074;49.254;6.702;2022-12-15T06:25:56;24.13;;;15.83;;
9950;SDS011;24074;49.254;6.702;2022-12-15T06:28:23;23.03;;;14.83;;
9950;SDS011;24074;49.254;6.702;2022-12-15T06:30:52;23.17;;;15.43;;
9950;SDS011;24074;49.254;6.702;2022-12-15T06:33:20;24.73;;;16.03;;
9950;SDS011;24074;49.254;6.702;2022-12-15T06:35:47;25.80;;;15.63;;
9950;SDS011;24074;49.254;6.702;2022-12-15T06:38:13;25.57;;;16.17;;
9950;SDS011;24074;49.254;6.702;2022-12-15T06:40:39;23.33;;;15.50;;
9950;SDS011;24074;49.254;6.702;2022-12-15T06:43:05;24.80;;;16.13;;
9950;SDS011;24074;49.254;6.702;2022-12-15T06:45:32;23.77;;;15.60;;
9950;SDS011;24074;49.254;6.702;2022-12-15T06:47:58;21.67;;;15.07;;
9950;SDS011;24074;49.254;6.702;2022-12-15T06:50:23;26.33;;;16.17;;
9950;SDS011;24074;49.254;6.702;2022-12-15T06:52:49;25.17;;;16.23;;
9950;SDS011;24074;49.254;6.702;2022-12-15T06:55:15;27.57;;;17.23;;
9950;SDS011;24074;49.254;6.702;2022-12-15T06:57:40;29.57;;;17.03;;
9950;SDS011;24074;49.254;6.702;2022-12-15T07:00:06;27.23;;;17.73;;
9950;SDS011;24074;49.254;6.702;2022-12-15T07:02:32;24.77;;;16.40;;
9950;SDS011;24074;49.254;6.702;2022-12-15T07:04:58;27.13;;;16.83;;
9950;SDS011;24074;49.254;6.702;2022-12-15T07:07:24;25.87;;;16.53;;
9950;SDS011;24074;49.254;6.702;2022-12-15T07:09:49;21.63;;;15.67;;
9950;SDS011;24074;49.254;6.702;2022-12-15T07:12:15;27.13;;;16.10;;
9950;SDS011;24074;49.254;6.702;2022-12-15T07:14:41;26.17;;;16.10;;
9950;SDS011;24074;49.254;6.702;2022-12-15T07:17:07;24.43;;;16.50;;
9950;SDS011;24074;49.254;6.702;2022-12-15T07:19:34;25.03;;;15.50;;
9950;SDS011;24074;49.254;6.702;2022-12-15T07:22:00;24.00;;;15.33;;
9950;SDS011;24074;49.254;6.702;2022-12-15T07:24:26;22.13;;;15.70;;
9950;SDS011;24074;49.254;6.702;2022-12-15T07:26:51;23.43;;;15.20;;
9950;SDS011;24074;49.254;6.702;2022-12-15T07:29:17;24.90;;;15.10;;
9950;SDS011;24074;49.254;6.702;2022-12-15T07:31:42;19.20;;;12.90;;
9950;SDS011;24074;49.254;6.702;2022-12-15T07:34:08;22.13;;;14.37;;
9950;SDS011;24074;49.254;6.702;2022-12-15T07:36:34;22.23;;;14.93;;
9950;SDS011;24074;49.254;6.702;2022-12-15T07:38:59;23.97;;;15.37;;
9950;SDS011;24074;49.254;6.702;2022-12-15T07:41:26;19.67;;;12.77;;
9950;SDS011;24074;49.254;6.702;2022-12-15T07:43:52;21.17;;;14.37;;
9950;SDS011;24074;49.254;6.702;2022-12-15T07:46:18;21.80;;;14.70;;
9950;SDS011;24074;49.254;6.702;2022-12-15T07:48:44;21.50;;;14.53;;
9950;SDS011;24074;49.254;6.702;2022-12-15T07:51:10;16.93;;;12.60;;
9950;SDS011;24074;49.254;6.702;2022-12-15T07:53:35;18.17;;;12.70;;
9950;SDS011;24074;49.254;6.702;2022-12-15T07:56:02;20.43;;;13.10;;
9950;SDS011;24074;49.254;6.702;2022-12-15T07:58:29;17.40;;;12.33;;
9950;SDS011;24074;49.254;6.702;2022-12-15T08:00:59;18.60;;;12.47;;
9950;SDS011;24074;49.254;6.702;2022-12-15T08:03:26;15.47;;;11.83;;
9950;SDS011;24074;49.254;6.702;2022-12-15T08:05:52;17.03;;;11.80;;
9950;SDS011;24074;49.254;6.702;2022-12-15T08:08:18;18.03;;;12.33;;
9950;SDS011;24074;49.254;6.702;2022-12-15T08:10:44;16.63;;;12.03;;
9950;SDS011;24074;49.254;6.702;2022-12-15T08:13:09;15.80;;;11.93;;
9950;SDS011;24074;49.254;6.702;2022-12-15T08:15:36;15.47;;;11.60;;
9950;SDS011;24074;49.254;6.702;2022-12-15T08:18:03;17.87;;;11.87;;
9950;SDS011;24074;49.254;6.702;2022-12-15T08:20:29;15.97;;;11.47;;
9950;SDS011;24074;49.254;6.702;2022-12-15T08:22:55;14.63;;;10.67;;
9950;SDS011;24074;49.254;6.702;2022-12-15T08:25:21;16.37;;;12.03;;
9950;SDS011;24074;49.254;6.702;2022-12-15T08:27:50;16.57;;;11.97;;
9950;SDS011;24074;49.254;6.702;2022-12-15T08:30:16;16.97;;;11.13;;
9950;SDS011;24074;49.254;6.702;2022-12-15T08:32:42;17.60;;;12.87;;
9950;SDS011;24074;49.254;6.702;2022-12-15T08:35:08;16.53;;;11.37;;
9950;SDS011;24074;49.254;6.702;2022-12-15T08:37:34;14.80;;;10.63;;
9950;SDS011;24074;49.254;6.702;2022-12-15T08:40:00;14.87;;;11.27;;
9950;SDS011;24074;49.254;6.702;2022-12-15T08:42:26;16.63;;;11.33;;
9950;SDS011;24074;49.254;6.702;2022-12-15T08:44:51;14.80;;;11.33;;
9950;SDS011;24074;49.254;6.702;2022-12-15T08:47:17;14.93;;;12.13;;
9950;SDS011;24074;49.254;6.702;2022-12-15T08:49:42;16.37;;;12.77;;
9950;SDS011;24074;49.254;6.702;2022-12-15T08:52:08;16.37;;;11.97;;
9950;SDS011;24074;49.254;6.702;2022-12-15T08:54:34;15.03;;;11.53;;
9950;SDS011;24074;49.254;6.702;2022-12-15T08:56:59;14.93;;;11.00;;
9950;SDS011;24074;49.254;6.702;2022-12-15T08:59:25;14.90;;;11.23;;
9950;SDS011;24074;49.254;6.702;2022-12-15T09:01:51;15.40;;;11.40;;
9950;SDS011;24074;49.254;6.702;2022-12-15T09:04:17;16.37;;;11.10;;
9950;SDS011;24074;49.254;6.702;2022-12-15T09:06:42;14.70;;;11.63;;
9950;SDS011;24074;49.254;6.702;2022-12-15T09:09:09;14.17;;;11.43;;
9950;SDS011;24074;49.254;6.702;2022-12-15T09:11:36;15.67;;;12.03;;
9950;SDS011;24074;49.254;6.702;2022-12-15T09:14:02;15.13;;;11.80;;
9950;SDS011;24074;49.254;6.702;2022-12-15T09:16:28;16.23;;;11.83;;
9950;SDS011;24074;49.254;6.702;2022-12-15T09:18:55;14.80;;;12.17;;
9950;SDS011;24074;49.254;6.702;2022-12-15T09:21:23;16.17;;;11.97;;
9950;SDS011;24074;49.254;6.702;2022-12-15T09:23:51;14.67;;;11.73;;
9950;SDS011;24074;49.254;6.702;2022-12-15T09:26:18;15.70;;;11.50;;
9950;SDS011;24074;49.254;6.702;2022-12-15T09:28:46;15.93;;;11.80;;
9950;SDS011;24074;49.254;6.702;2022-12-15T09:31:14;16.10;;;11.90;;
9950;SDS011;24074;49.254;6.702;2022-12-15T09:33:45;16.23;;;12.27;;
9950;SDS011;24074;49.254;6.702;2022-12-15T09:36:11;17.37;;;11.73;;
9950;SDS011;24074;49.254;6.702;2022-12-15T09:38:38;15.33;;;12.63;;
9950;SDS011;24074;49.254;6.702;2022-12-15T09:41:12;18.77;;;12.80;;
9950;SDS011;24074;49.254;6.702;2022-12-15T09:46:59;16.43;;;12.70;;
9950;SDS011;24074;49.254;6.702;2022-12-15T09:49:10;14.63;;;11.67;;
9950;SDS011;24074;49.254;6.702;2022-12-15T09:52:02;17.67;;;12.30;;
9950;SDS011;24074;49.254;6.702;2022-12-15T09:54:31;17.27;;;12.90;;
9950;SDS011;24074;49.254;6.702;2022-12-15T09:56:59;17.07;;;11.13;;
9950;SDS011;24074;49.254;6.702;2022-12-15T10:00:00;16.60;;;12.97;;
9950;SDS011;24074;49.254;6.702;2022-12-15T10:05:16;14.87;;;11.03;;
9950;SDS011;24074;49.254;6.702;2022-12-15T10:08:01;17.57;;;11.67;;
9950;SDS011;24074;49.254;6.702;2022-12-15T10:13:05;15.33;;;11.53;;
9950;SDS011;24074;49.254;6.702;2022-12-15T10:15:46;13.23;;;10.00;;
9950;SDS011;24074;49.254;6.702;2022-12-15T10:18:37;14.80;;;11.00;;
9950;SDS011;24074;49.254;6.702;2022-12-15T10:21:12;14.03;;;10.13;;
9950;SDS011;24074;49.254;6.702;2022-12-15T10:23:38;13.03;;;10.10;;
9950;SDS011;24074;49.254;6.702;2022-12-15T10:28:50;13.20;;;10.40;;
9950;SDS011;24074;49.254;6.702;2022-12-15T10:34:03;15.47;;;10.87;;
9950;SDS011;24074;49.254;6.702;2022-12-15T10:36:35;12.10;;;9.20;;
9950;SDS011;24074;49.254;6.702;2022-12-15T10:39:00;11.33;;;8.83;;
9950;SDS011;24074;49.254;6.702;2022-12-15T10:41:26;13.93;;;10.10;;
9950;SDS011;24074;49.254;6.702;2022-12-15T10:43:56;12.87;;;9.50;;
9950;SDS011;24074;49.254;6.702;2022-12-15T10:46:26;11.30;;;9.53;;
9950;SDS011;24074;49.254;6.702;2022-12-15T10:48:57;11.37;;;8.27;;
9950;SDS011;24074;49.254;6.702;2022-12-15T10:52:03;13.37;;;9.37;;
9950;SDS011;24074;49.254;6.702;2022-12-15T10:54:31;11.43;;;9.53;;
9950;SDS011;24074;49.254;6.702;2022-12-15T10:57:02;11.00;;;8.07;;
9950;SDS011;24074;49.254;6.702;2022-12-15T10:59:46;12.07;;;7.77;;
9950;SDS011;24074;49.254;6.702;2022-12-15T11:04:57;13.53;;;8.93;;
9950;SDS011;24074;49.254;6.702;2022-12-15T11:07:26;11.50;;;8.33;;
9950;SDS011;24074;49.254;6.702;2022-12-15T11:09:57;12.20;;;8.30;;
9950;SDS011;24074;49.254;6.702;2022-12-15T11:12:25;11.20;;;7.73;;
9950;SDS011;24074;49.254;6.702;2022-12-15T11:17:53;13.10;;;8.80;;
9950;SDS011;24074;49.254;6.702;2022-12-15T11:27:23;16.07;;;9.90;;
9950;SDS011;24074;49.254;6.702;2022-12-15T11:30:01;13.67;;;9.30;;
9950;SDS011;24074;49.254;6.702;2022-12-15T11:32:37;15.87;;;10.63;;
9950;SDS011;24074;49.254;6.702;2022-12-15T11:38:17;11.83;;;8.90;;
9950;SDS011;24074;49.254;6.702;2022-12-15T11:40:53;14.63;;;9.67;;
9950;SDS011;24074;49.254;6.702;2022-12-15T11:43:28;13.27;;;8.60;;
9950;SDS011;24074;49.254;6.702;2022-12-15T11:48:52;10.33;;;7.93;;
9950;SDS011;24074;49.254;6.702;2022-12-15T11:54:29;12.43;;;8.43;;
9950;SDS011;24074;49.254;6.702;2022-12-15T12:00:04;11.50;;;8.30;;
9950;SDS011;24074;49.254;6.702;2022-12-15T12:13:27;11.10;;;7.27;;
9950;SDS011;24074;49.254;6.702;2022-12-15T12:18:47;10.40;;;7.73;;
9950;SDS011;24074;49.254;6.702;2022-12-15T12:21:19;10.47;;;7.97;;
9950;SDS011;24074;49.254;6.702;2022-12-15T12:24:00;11.17;;;7.80;;
9950;SDS011;24074;49.254;6.702;2022-12-15T12:29:33;13.10;;;7.97;;
9950;SDS011;24074;49.254;6.702;2022-12-15T12:32:12;12.17;;;7.77;;
9950;SDS011;24074;49.254;6.702;2022-12-15T12:38:02;12.10;;;7.90;;
9950;SDS011;24074;49.254;6.702;2022-12-15T12:43:04;10.80;;;7.67;;
9950;SDS011;24074;49.254;6.702;2022-12-15T12:45:53;11.70;;;8.57;;
9950;SDS011;24074;49.254;6.702;2022-12-15T12:48:27;10.67;;;7.97;;
9950;SDS011;24074;49.254;6.702;2022-12-15T12:51:09;10.90;;;8.07;;
9950;SDS011;24074;49.254;6.702;2022-12-15T12:53:51;11.60;;;8.23;;
9950;SDS011;24074;49.254;6.702;2022-12-15T13:01:51;10.43;;;7.73;;
9950;SDS011;24074;49.254;6.702;2022-12-15T13:09:20;10.40;;;7.53;;
9950;SDS011;24074;49.254;6.702;2022-12-15T13:14:17;11.97;;;7.83;;
9950;SDS011;24074;49.254;6.702;2022-12-15T13:16:45;8.80;;;6.93;;
9950;SDS011;24074;49.254;6.702;2022-12-15T13:19:11;9.07;;;6.80;;
9950;SDS011;24074;49.254;6.702;2022-12-15T13:26:44;10.80;;;7.70;;
9950;SDS011;24074;49.254;6.702;2022-12-15T13:29:10;9.53;;;6.30;;
9950;SDS011;24074;49.254;6.702;2022-12-15T13:31:43;7.50;;;5.60;;
9950;SDS011;24074;49.254;6.702;2022-12-15T13:34:22;9.70;;;6.10;;
9950;SDS011;24074;49.254;6.702;2022-12-15T13:36:51;10.17;;;7.27;;
9950;SDS011;24074;49.254;6.702;2022-12-15T13:47:10;8.67;;;6.17;;
9950;SDS011;24074;49.254;6.702;2022-12-15T13:49:42;8.83;;;6.53;;
9950;SDS011;24074;49.254;6.702;2022-12-15T13:52:26;8.90;;;5.70;;
9950;SDS011;24074;49.254;6.702;2022-12-15T13:55:00;8.73;;;6.60;;
9950;SDS011;24074;49.254;6.702;2022-12-15T13:57:32;7.80;;;5.67;;
9950;SDS011;24074;49.254;6.702;2022-12-15T14:00:04;9.60;;;6.27;;
9950;SDS011;24074;49.254;6.702;2022-12-15T14:02:42;9.33;;;6.80;;
9950;SDS011;24074;49.254;6.702;2022-12-15T14:10:19;8.90;;;6.50;;
9950;SDS011;24074;49.254;6.702;2022-12-15T14:13:26;9.57;;;6.47;;
9950;SDS011;24074;49.254;6.702;2022-12-15T14:20:56;7.73;;;6.00;;
9950;SDS011;24074;49.254;6.702;2022-12-15T14:23:24;8.03;;;5.57;;
9950;SDS011;24074;49.254;6.702;2022-12-15T14:26:00;8.43;;;6.47;;
9950;SDS011;24074;49.254;6.702;2022-12-15T14:28:30;9.77;;;7.10;;
9950;SDS011;24074;49.254;6.702;2022-12-15T14:30:59;8.50;;;5.90;;
9950;SDS011;24074;49.254;6.702;2022-12-15T14:33:35;8.60;;;6.43;;
9950;SDS011;24074;49.254;6.702;2022-12-15T14:36:04;8.50;;;5.73;;
9950;SDS011;24074;49.254;6.702;2022-12-15T14:38:44;9.13;;;5.80;;
9950;SDS011;24074;49.254;6.702;2022-12-15T14:41:18;9.10;;;5.87;;
9950;SDS011;24074;49.254;6.702;2022-12-15T14:43:51;7.67;;;5.13;;
9950;SDS011;24074;49.254;6.702;2022-12-15T14:46:22;9.40;;;5.83;;
9950;SDS011;24074;49.254;6.702;2022-12-15T14:48:52;7.43;;;5.50;;
9950;SDS011;24074;49.254;6.702;2022-12-15T14:51:20;12.00;;;7.67;;
9950;SDS011;24074;49.254;6.702;2022-12-15T14:53:49;10.43;;;6.37;;
9950;SDS011;24074;49.254;6.702;2022-12-15T14:58:55;7.97;;;5.83;;
9950;SDS011;24074;49.254;6.702;2022-12-15T15:01:28;9.67;;;6.63;;
9950;SDS011;24074;49.254;6.702;2022-12-15T15:03:59;9.53;;;6.17;;
9950;SDS011;24074;49.254;6.702;2022-12-15T15:06:30;9.90;;;6.70;;
9950;SDS011;24074;49.254;6.702;2022-12-15T15:09:21;8.40;;;5.97;;
9950;SDS011;24074;49.254;6.702;2022-12-15T15:11:53;9.57;;;6.67;;
9950;SDS011;24074;49.254;6.702;2022-12-15T15:14:25;9.43;;;6.23;;
9950;SDS011;24074;49.254;6.702;2022-12-15T15:17:07;9.73;;;6.30;;
9950;SDS011;24074;49.254;6.702;2022-12-15T15:19:45;12.07;;;6.83;;
9950;SDS011;24074;49.254;6.702;2022-12-15T15:28:12;9.10;;;5.43;;
9950;SDS011;24074;49.254;6.702;2022-12-15T15:30:40;10.17;;;6.47;;
9950;SDS011;24074;49.254;6.702;2022-12-15T15:33:16;9.33;;;6.43;;
9950;SDS011;24074;49.254;6.702;2022-12-15T15:35:44;8.37;;;5.97;;
9950;SDS011;24074;49.254;6.702;2022-12-15T15:40:51;12.03;;;7.97;;
9950;SDS011;24074;49.254;6.702;2022-12-15T15:43:19;10.40;;;7.40;;
9950;SDS011;24074;49.254;6.702;2022-12-15T15:45:45;11.40;;;8.10;;
9950;SDS011;24074;49.254;6.702;2022-12-15T15:48:20;9.90;;;5.30;;
9950;SDS011;24074;49.254;6.702;2022-12-15T15:50:50;9.10;;;6.27;;
9950;SDS011;24074;49.254;6.702;2022-12-15T15:53:17;11.23;;;6.87;;
9950;SDS011;24074;49.254;6.702;2022-12-15T15:55:46;10.23;;;6.43;;
9950;SDS011;24074;49.254;6.702;2022-12-15T15:58:14;8.83;;;6.53;;
9950;SDS011;24074;49.254;6.702;2022-12-15T16:00:39;10.60;;;6.90;;
9950;SDS011;24074;49.254;6.702;2022-12-15T16:03:05;9.53;;;7.23;;
9950;SDS011;24074;49.254;6.702;2022-12-15T16:05:31;10.20;;;6.70;;
9950;SDS011;24074;49.254;6.702;2022-12-15T16:07:57;8.33;;;6.30;;
9950;SDS011;24074;49.254;6.702;2022-12-15T16:10:23;9.13;;;6.63;;
9950;SDS011;24074;49.254;6.702;2022-12-15T16:12:50;10.57;;;6.77;;
9950;SDS011;24074;49.254;6.702;2022-12-15T16:15:22;9.87;;;6.30;;
9950;SDS011;24074;49.254;6.702;2022-12-15T16:17:52;11.07;;;7.10;;
9950;SDS011;24074;49.254;6.702;2022-12-15T16:20:20;13.10;;;8.80;;
9950;SDS011;24074;49.254;6.702;2022-12-15T16:22:49;11.70;;;7.70;;
9950;SDS011;24074;49.254;6.702;2022-12-15T16:25:19;9.10;;;6.77;;
9950;SDS011;24074;49.254;6.702;2022-12-15T16:27:56;10.83;;;6.77;;
9950;SDS011;24074;49.254;6.702;2022-12-15T16:30:23;11.80;;;7.60;;
9950;SDS011;24074;49.254;6.702;2022-12-15T16:32:50;11.53;;;6.80;;
9950;SDS011;24074;49.254;6.702;2022-12-15T16:35:16;11.47;;;7.60;;
9950;SDS011;24074;49.254;6.702;2022-12-15T16:37:42;11.43;;;7.40;;
9950;SDS011;24074;49.254;6.702;2022-12-15T16:40:18;12.33;;;7.53;;
9950;SDS011;24074;49.254;6.702;2022-12-15T16:42:58;11.33;;;7.03;;
9950;SDS011;24074;49.254;6.702;2022-12-15T16:45:26;10.10;;;7.27;;
9950;SDS011;24074;49.254;6.702;2022-12-15T16:47:53;10.03;;;6.93;;
9950;SDS011;24074;49.254;6.702;2022-12-15T16:50:21;9.50;;;6.70;;
9950;SDS011;24074;49.254;6.702;2022-12-15T16:52:51;10.30;;;6.83;;
9950;SDS011;24074;49.254;6.702;2022-12-15T16:55:24;10.43;;;6.97;;
9950;SDS011;24074;49.254;6.702;2022-12-15T16:57:59;10.87;;;7.00;;
9950;SDS011;24074;49.254;6.702;2022-12-15T17:00:27;11.23;;;6.87;;
9950;SDS011;24074;49.254;6.702;2022-12-15T17:02:55;9.87;;;6.90;;
9950;SDS011;24074;49.254;6.702;2022-12-15T17:05:25;10.63;;;7.03;;
9950;SDS011;24074;49.254;6.702;2022-12-15T17:07:54;7.10;;;4.73;;
9950;SDS011;24074;49.254;6.702;2022-12-15T17:10:23;10.03;;;6.90;;
9950;SDS011;24074;49.254;6.702;2022-12-15T17:12:50;9.23;;;7.17;;
9950;SDS011;24074;49.254;6.702;2022-12-15T17:15:18;10.90;;;7.07;;
9950;SDS011;24074;49.254;6.702;2022-12-15T17:17:46;9.93;;;6.50;;
9950;SDS011;24074;49.254;6.702;2022-12-15T17:20:16;11.17;;;7.13;;
9950;SDS011;24074;49.254;6.702;2022-12-15T17:22:46;7.03;;;4.47;;
9950;SDS011;24074;49.254;6.702;2022-12-15T17:25:16;9.37;;;6.40;;
9950;SDS011;24074;49.254;6.702;2022-12-15T17:27:44;11.80;;;7.60;;